Time;durP1;ratioP1;P1;durP2;ratioP2;P2;SDS_P1;SDS_P2;PMS_P1;PMS_P2;Temp;Humidity;BMP_temperature;BMP_pressure;BME280_temperature;BME280_humidity;BME280_pressure;Samples;Min_cycle;Max_cycle;Signal;HPM_P1;HPM_P2
2024/02/14 00:01:06;;;;;;;1999.90;999.90;;;;;;;8.12;100.00;101294.47;10220973;29;20066;-68
2024/02/14 00:06:08;;;;;;;1999.90;999.90;;;;;;;8.09;100.00;101284.19;10220856;29;20103;-68
2024/02/14 00:11:11;;;;;;;1999.90;999.90;;;;;;;8.06;100.00;101274.72;10219847;29;20059;-68
2024/02/14 00:16:13;;;;;;;1999.90;999.90;;;;;;;8.12;100.00;101289.25;10218637;29;20047;-68
2024/02/14 00:21:15;;;;;;;1999.90;999.90;;;;;;;8.19;100.00;101288.97;10219582;29;20496;-67
2024/02/14 00:26:18;;;;;;;1999.90;999.90;;;;;;;8.27;100.00;101266.94;10218762;29;20044;-68
2024/02/14 00:31:20;;;;;;;1999.90;999.90;;;;;;;8.30;100.00;101270.28;10219797;29;20062;-68
2024/02/14 00:36:23;;;;;;;1999.90;999.90;;;;;;;8.20;100.00;101263.72;10217877;29;20398;-68
2024/02/14 00:41:29;;;;;;;1999.90;999.90;;;;;;;8.27;100.00;101246.06;10217657;29;20590;-68
2024/02/14 00:46:32;;;;;;;1999.90;999.90;;;;;;;8.32;100.00;101236.28;10219178;29;20048;-68
2024/02/14 00:51:34;;;;;;;1999.90;999.90;;;;;;;8.41;100.00;101246.38;10219063;29;20126;-68
2024/02/14 00:56:37;;;;;;;1999.90;999.90;;;;;;;8.32;100.00;101239.78;10218961;29;20122;-68
2024/02/14 01:01:39;;;;;;;1999.90;999.90;;;;;;;8.48;100.00;101242.63;10218717;29;20110;-68
2024/02/14 01:06:42;;;;;;;1999.90;999.90;;;;;;;8.58;100.00;101250.09;10217847;29;20381;-68
2024/02/14 01:11:44;;;;;;;1999.90;999.90;;;;;;;8.62;100.00;101238.59;10217685;29;20067;-68
2024/02/14 01:16:47;;;;;;;1999.90;999.90;;;;;;;8.57;100.00;101251.81;10216904;29;20436;-68
2024/02/14 01:21:50;;;;;;;1999.90;999.90;;;;;;;8.73;100.00;101237.22;10216856;29;20103;-68
2024/02/14 01:26:53;;;;;;;1999.90;999.90;;;;;;;8.72;100.00;101240.75;10217696;29;20050;-68
2024/02/14 01:31:56;;;;;;;1999.90;999.90;;;;;;;8.73;100.00;101245.06;10216466;29;20063;-68
2024/02/14 01:36:58;;;;;;;1999.90;999.90;;;;;;;8.76;100.00;101235.38;10215619;29;20123;-68
2024/02/14 01:42:00;;;;;;;1999.90;999.90;;;;;;;8.72;100.00;101238.16;10216555;29;20052;-68
2024/02/14 01:47:03;;;;;;;1999.90;999.90;;;;;;;8.72;100.00;101237.28;10215122;29;20048;-68
2024/02/14 01:52:06;;;;;;;1999.90;999.90;;;;;;;8.78;100.00;101239.63;10214988;29;20415;-68
2024/02/14 01:57:11;;;;;;;1999.90;999.90;;;;;;;8.91;100.00;101240.81;10215461;29;20062;-68
2024/02/14 02:02:13;;;;;;;1999.90;999.90;;;;;;;8.86;100.00;101237.56;10215313;29;20058;-68
2024/02/14 02:07:17;;;;;;;1999.90;999.90;;;;;;;8.86;100.00;101234.94;10198445;29;20052;-68
2024/02/14 02:12:19;;;;;;;1999.90;999.90;;;;;;;8.88;100.00;101233.09;10214208;29;20071;-68
2024/02/14 02:17:22;;;;;;;1999.90;999.90;;;;;;;9.03;100.00;101230.75;10215282;29;20082;-68
2024/02/14 02:22:24;;;;;;;1999.90;999.90;;;;;;;9.10;100.00;101230.41;10227669;23;20329;-66
2024/02/14 02:27:27;;;;;;;1999.90;999.90;;;;;;;9.24;100.00;101231.53;10215609;29;20048;-66
2024/02/14 02:32:29;;;;;;;1999.90;999.90;;;;;;;9.13;100.00;101232.03;10213682;29;20513;-66
2024/02/14 02:37:31;;;;;;;1999.90;999.90;;;;;;;9.02;100.00;101239.50;10215340;29;20052;-66
2024/02/14 02:42:34;;;;;;;1999.90;999.90;;;;;;;9.07;100.00;101232.31;10214572;29;20167;-66
2024/02/14 02:47:36;;;;;;;1999.90;999.90;;;;;;;9.01;100.00;101241.25;10214415;29;20079;-66
2024/02/14 02:52:40;;;;;;;1999.90;999.90;;;;;;;9.13;100.00;101229.44;10214952;29;20051;-66
2024/02/14 02:57:43;;;;;;;1999.90;999.90;;;;;;;9.12;100.00;101232.94;10214805;29;20126;-66
2024/02/14 03:02:46;;;;;;;1999.90;999.90;;;;;;;9.22;100.00;101228.16;10213586;29;20067;-66
2024/02/14 03:07:49;;;;;;;1999.90;999.90;;;;;;;9.23;100.00;101238.53;10214557;29;20051;-66
2024/02/14 03:12:52;;;;;;;1999.90;999.90;;;;;;;9.26;100.00;101240.16;10213371;29;20055;-66
2024/02/14 03:17:55;;;;;;;1999.90;999.90;;;;;;;9.10;100.00;101246.06;10218465;29;20129;-66
2024/02/14 03:22:57;;;;;;;1999.90;999.90;;;;;;;9.17;100.00;101240.59;10221685;29;20066;-67
2024/02/14 03:28:00;;;;;;;1999.90;999.90;;;;;;;9.24;100.00;101257.69;10222183;29;20044;-66
2024/02/14 03:33:05;;;;;;;1999.90;999.90;;;;;;;9.28;100.00;101249.63;10222098;29;20059;-66
2024/02/14 03:38:08;;;;;;;1999.90;999.90;;;;;;;9.38;100.00;101247.47;10220775;29;20044;-66
2024/02/14 03:43:11;;;;;;;1999.90;999.90;;;;;;;9.42;100.00;101253.41;10221106;29;20495;-66
2024/02/14 03:48:14;;;;;;;1999.90;999.90;;;;;;;9.43;100.00;101258.56;10220816;29;20052;-66
2024/02/14 03:53:17;;;;;;;1999.90;999.90;;;;;;;9.45;100.00;101256.72;10220737;29;20079;-66
2024/02/14 03:58:22;;;;;;;1999.90;999.90;;;;;;;9.50;100.00;101246.06;10219971;29;20047;-66
2024/02/14 04:03:24;;;;;;;1999.90;999.90;;;;;;;9.53;100.00;101253.75;10219199;29;20055;-66
2024/02/14 04:08:28;;;;;;;1999.90;999.90;;;;;;;9.75;100.00;101255.38;10220670;29;20048;-66
2024/02/14 04:13:31;;;;;;;1999.90;999.90;;;;;;;9.70;100.00;101266.06;10220572;29;20055;-66
2024/02/14 04:18:33;;;;;;;1999.90;999.90;;;;;;;9.63;100.00;101254.16;10219188;29;20059;-66
2024/02/14 04:23:36;;;;;;;1999.90;999.90;;;;;;;9.85;100.00;101264.47;10218339;29;20066;-66
2024/02/14 04:28:40;;;;;;;1999.90;999.90;;;;;;;9.81;100.00;101266.38;10218165;29;20052;-66
2024/02/14 04:33:43;;;;;;;1999.90;999.90;;;;;;;9.72;100.00;101274.69;10219196;29;20166;-66
2024/02/14 04:38:48;;;;;;;1999.90;999.90;;;;;;;9.82;100.00;101275.09;10219194;29;20407;-66
2024/02/14 04:43:50;;;;;;;1999.90;999.90;;;;;;;9.69;100.00;101282.66;10219465;29;20074;-66
2024/02/14 04:48:53;;;;;;;1999.90;999.90;;;;;;;9.95;100.00;101278.84;10219201;29;20080;-67
2024/02/14 04:53:58;;;;;;;1999.90;999.90;;;;;;;9.77;100.00;101290.16;10218508;29;20513;-66
2024/02/14 04:59:01;;;;;;;1999.90;999.90;;;;;;;9.83;100.00;101292.47;10219471;29;20111;-66
2024/02/14 05:04:04;;;;;;;1999.90;999.90;;;;;;;9.64;100.00;101293.31;10218122;29;20075;-66
2024/02/14 05:09:06;;;;;;;1999.90;999.90;;;;;;;9.94;100.00;101305.91;10217768;29;20060;-66
2024/02/14 05:14:09;;;;;;;1999.90;999.90;;;;;;;9.85;100.00;101306.31;10217810;29;20090;-66
2024/02/14 05:19:11;;;;;;;1999.90;999.90;;;;;;;9.81;100.00;101316.06;10217460;29;20513;-66
2024/02/14 05:24:14;;;;;;;1999.90;999.90;;;;;;;9.85;100.00;101315.03;10217535;29;20051;-66
2024/02/14 05:29:18;;;;;;;1999.90;999.90;;;;;;;9.89;100.00;101314.91;10217614;29;20055;-66
2024/02/14 05:34:21;;;;;;;1999.90;999.90;;;;;;;9.87;100.00;101317.59;10216356;29;20051;-66
2024/02/14 05:39:23;;;;;;;1999.90;999.90;;;;;;;9.95;100.00;101317.22;10216479;29;20132;-66
2024/02/14 05:44:27;;;;;;;1999.90;999.90;;;;;;;9.67;100.00;101332.41;10215855;29;20058;-66
2024/02/14 05:49:29;;;;;;;1999.90;999.90;;;;;;;9.75;100.00;101332.06;10215612;29;20054;-66
2024/02/14 05:54:32;;;;;;;1999.90;999.90;;;;;;;9.98;100.00;101338.84;10216062;29;20476;-66
2024/02/14 05:59:34;;;;;;;1999.90;999.90;;;;;;;9.85;100.00;101335.09;10216517;29;20054;-66
2024/02/14 06:04:37;;;;;;;1999.90;999.90;;;;;;;9.75;100.00;101331.19;10214584;29;20115;-66
2024/02/14 06:09:40;;;;;;;1999.90;999.90;;;;;;;9.75;100.00;101333.81;10215109;29;20054;-66
2024/02/14 06:14:42;;;;;;;1999.90;999.90;;;;;;;9.82;100.00;101345.72;10216112;29;20052;-66
2024/02/14 06:19:44;;;;;;;1999.90;999.90;;;;;;;9.85;100.00;101342.94;10215899;29;20079;-66
2024/02/14 06:24:50;;;;;;;1999.90;999.90;;;;;;;9.83;100.00;101363.09;10213970;29;20068;-66
2024/02/14 06:29:53;;;;;;;1999.90;999.90;;;;;;;9.86;100.00;101362.94;10215464;29;20054;-66
2024/02/14 06:34:55;;;;;;;1999.90;999.90;;;;;;;9.91;100.00;101363.59;10214807;29;20510;-66
2024/02/14 06:39:58;;;;;;;1999.90;999.90;;;;;;;9.83;100.00;101368.31;10215250;29;20135;-66
2024/02/14 06:45:01;;;;;;;1999.90;999.90;;;;;;;9.78;100.00;101380.75;10215180;29;20056;-66
2024/02/14 06:50:04;;;;;;;1999.90;999.90;;;;;;;9.91;100.00;101394.97;10214844;29;20103;-66
2024/02/14 06:55:07;;;;;;;1999.90;999.90;;;;;;;9.96;100.00;101381.69;10215116;29;20054;-66
2024/02/14 07:00:10;;;;;;;1999.90;999.90;;;;;;;10.01;100.00;101391.03;10214837;29;20055;-66
2024/02/14 07:05:14;;;;;;;1999.90;999.90;;;;;;;9.99;100.00;101392.88;10214694;29;20079;-66
2024/02/14 07:10:17;;;;;;;1999.90;999.90;;;;;;;10.00;100.00;101393.69;10212748;29;20490;-66
2024/02/14 07:15:19;;;;;;;1999.90;999.90;;;;;;;10.04;100.00;101409.19;10214504;29;20055;-66
2024/02/14 07:20:25;;;;;;;1999.90;999.90;;;;;;;10.11;100.00;101406.31;10214401;29;20054;-66
2024/02/14 07:25:27;;;;;;;1999.90;999.90;;;;;;;10.34;100.00;101400.03;10212709;29;20060;-66
2024/02/14 07:30:29;;;;;;;1999.90;999.90;;;;;;;10.23;100.00;101403.13;10214270;29;20048;-66
2024/02/14 07:35:32;;;;;;;1999.90;999.90;;;;;;;10.34;100.00;101402.66;10214332;29;20115;-66
2024/02/14 07:40:34;;;;;;;1999.90;999.90;;;;;;;10.17;100.00;101398.16;10214071;29;20052;-66
2024/02/14 07:45:37;;;;;;;1999.90;999.90;;;;;;;10.30;100.00;101396.69;10212194;29;20150;-66
2024/02/14 07:50:39;;;;;;;1999.90;999.90;;;;;;;10.16;100.00;101404.34;10213289;29;20426;-66
2024/02/14 07:55:41;;;;;;;1999.90;999.90;;;;;;;10.18;100.00;101415.56;10213816;29;20051;-66
2024/02/14 08:00:44;;;;;;;1999.90;999.90;;;;;;;10.51;100.00;101414.97;10213765;29;20099;-66
2024/02/14 08:05:46;;;;;;;1999.90;999.90;;;;;;;10.08;100.00;101411.69;10220486;29;20048;-66
2024/02/14 08:10:49;;;;;;;1999.90;999.90;;;;;;;10.37;100.00;101419.09;10219564;29;20052;-66
2024/02/14 08:15:52;;;;;;;1999.90;999.90;;;;;;;10.38;100.00;101425.16;10219987;29;20480;-66
2024/02/14 08:20:55;;;;;;;1999.90;999.90;;;;;;;10.36;100.00;101429.63;10220417;29;20056;-66
2024/02/14 08:25:57;;;;;;;1999.90;999.90;;;;;;;10.32;100.00;101433.28;10219305;29;20523;-66
2024/02/14 08:30:59;;;;;;;1999.90;999.90;;;;;;;10.35;100.00;101441.00;10219843;29;20048;-67
2024/02/14 08:36:03;;;;;;;1999.90;999.90;;;;;;;10.49;100.00;101443.84;10219163;29;20054;-67
2024/02/14 08:41:07;;;;;;;1999.90;999.90;;;;;;;10.45;100.00;101450.13;10218957;29;20130;-66
2024/02/14 08:46:13;;;;;;;1999.90;999.90;;;;;;;10.53;100.00;101444.53;10219340;29;20052;-66
2024/02/14 08:51:15;;;;;;;1999.90;999.90;;;;;;;10.63;100.00;101450.19;10219301;29;20047;-66
2024/02/14 08:56:18;;;;;;;1999.90;999.90;;;;;;;10.64;100.00;101444.88;10215584;29;20047;-66
2024/02/14 09:01:21;;;;;;;1999.90;999.90;;;;;;;10.70;100.00;101443.75;10193173;29;20089;-67
2024/02/14 09:06:24;;;;;;;1999.90;999.90;;;;;;;10.57;100.00;101438.22;10217583;29;20059;-67
2024/02/14 09:11:27;;;;;;;1999.90;999.90;;;;;;;10.57;100.00;101460.03;10184129;29;20056;-67
2024/02/14 09:16:31;;;;;;;1999.90;999.90;;;;;;;10.76;100.00;101453.94;10215935;29;20052;-67
2024/02/14 09:21:36;;;;;;;1999.90;999.90;;;;;;;10.67;100.00;101455.19;10213257;29;20052;-67
2024/02/14 09:26:40;;;;;;;1999.90;999.90;;;;;;;10.89;100.00;101465.53;10212129;29;20142;-66
2024/02/14 09:31:47;;;;;;;1999.90;999.90;;;;;;;10.97;100.00;101463.34;10224679;29;20098;-69
2024/02/14 09:36:49;;;;;;;1999.90;999.90;;;;;;;10.75;100.00;101466.16;10199945;29;20047;-67
2024/02/14 09:41:54;;;;;;;1999.90;999.90;;;;;;;10.94;100.00;101475.75;10187501;29;20052;-66
2024/02/14 09:46:57;;;;;;;1999.90;999.90;;;;;;;11.01;100.00;101476.31;10208260;29;20480;-67
2024/02/14 09:52:04;;;;;;;1999.90;999.90;;;;;;;10.96;100.00;101487.00;10205656;29;20522;-68
2024/02/14 09:57:07;;;;;;;1999.90;999.90;;;;;;;10.69;100.00;101479.56;10222177;29;20134;-67
2024/02/14 10:02:10;;;;;;;1999.90;999.90;;;;;;;10.99;100.00;101483.41;10214229;29;20132;-67
2024/02/14 10:07:12;;;;;;;1999.90;999.90;;;;;;;10.84;100.00;101496.31;10213568;29;20047;-65
2024/02/14 10:12:15;;;;;;;1999.90;999.90;;;;;;;11.02;100.00;101486.72;10215269;29;20059;-65
2024/02/14 10:17:18;;;;;;;1999.90;999.90;;;;;;;11.09;100.00;101503.84;10216243;29;20052;-65
2024/02/14 10:22:20;;;;;;;1999.90;999.90;;;;;;;11.19;100.00;101501.63;10215806;29;20130;-65
2024/02/14 10:27:23;;;;;;;1999.90;999.90;;;;;;;11.21;100.00;101488.44;10214710;29;20484;-65
2024/02/14 10:32:25;;;;;;;1999.90;999.90;;;;;;;11.29;100.00;101488.94;10215547;29;20055;-65
2024/02/14 10:37:29;;;;;;;1999.90;999.90;;;;;;;11.66;100.00;101487.91;10198059;29;20054;-65
2024/02/14 10:42:32;;;;;;;1999.90;999.90;;;;;;;11.52;100.00;101503.53;10214118;29;20086;-66
2024/02/14 10:47:35;;;;;;;1999.90;999.90;;;;;;;11.61;100.00;101496.97;10213878;29;20048;-65
2024/02/14 10:52:41;;;;;;;1999.90;999.90;;;;;;;11.59;100.00;101511.94;10213807;29;20083;-65
2024/02/14 10:57:46;;;;;;;1999.90;999.90;;;;;;;11.90;100.00;101508.56;10213721;29;20130;-65
2024/02/14 11:02:49;;;;;;;1999.90;999.90;;;;;;;11.52;100.00;101509.59;10213043;29;20056;-66
2024/02/14 11:07:52;;;;;;;1999.90;999.90;;;;;;;11.74;100.00;101502.44;10214008;29;20551;-65
2024/02/14 11:12:55;;;;;;;1999.90;999.90;;;;;;;11.70;100.00;101502.59;10213962;29;20502;-66
2024/02/14 11:18:09;;;;;;;1999.90;999.90;;;;;;;11.52;100.00;101504.34;10214489;29;20047;-65
2024/02/14 11:23:12;;;;;;;1999.90;999.90;;;;;;;11.57;100.00;101496.28;10212575;29;20069;-65
2024/02/14 11:28:23;;;;;;;1999.90;999.90;;;;;;;11.74;100.00;101491.94;10213094;29;20054;-66
2024/02/14 11:33:26;;;;;;;1999.90;999.90;;;;;;;11.85;100.00;101494.84;10211702;29;20155;-65
2024/02/14 11:38:29;;;;;;;1999.90;999.90;;;;;;;11.89;100.00;101484.13;10217037;29;20111;-66
2024/02/14 11:43:32;;;;;;;1999.90;999.90;;;;;;;11.92;100.00;101470.03;10221185;29;20051;-65
2024/02/14 11:48:34;;;;;;;1999.90;999.90;;;;;;;11.82;100.00;101480.13;10221186;29;20044;-66
2024/02/14 11:53:40;;;;;;;1999.90;999.90;;;;;;;11.73;100.00;101474.50;10221334;29;20102;-65
2024/02/14 11:58:43;;;;;;;1999.90;999.90;;;;;;;12.04;100.00;101476.41;10219352;29;20463;-66
2024/02/14 12:03:46;;;;;;;1999.90;999.90;;;;;;;11.77;100.00;101476.91;10220363;29;20451;-65
2024/02/14 12:08:48;;;;;;;1999.90;999.90;;;;;;;11.83;100.00;101476.56;10220039;29;20055;-66
2024/02/14 12:13:51;;;;;;;1999.90;999.90;;;;;;;12.00;100.00;101480.13;10218590;29;20111;-66
2024/02/14 12:19:09;;;;;;;1999.90;999.90;;;;;;;11.73;100.00;101488.47;10220382;29;20055;-65
2024/02/14 12:24:14;;;;;;;1999.90;999.90;;;;;;;11.84;100.00;101464.31;10218791;29;20063;-66
2024/02/14 12:29:17;;;;;;;1999.90;999.90;;;;;;;11.89;100.00;101464.91;10218911;29;20051;-66
2024/02/14 12:34:20;;;;;;;1999.90;999.90;;;;;;;11.85;100.00;101472.09;10218731;29;20055;-66
2024/02/14 12:39:30;;;;;;;1999.90;999.90;;;;;;;11.66;100.00;101472.19;10218710;29;20048;-65
2024/02/14 12:44:32;;;;;;;1999.90;999.90;;;;;;;11.84;100.00;101465.16;10219474;29;20051;-65
2024/02/14 12:49:35;;;;;;;1999.90;999.90;;;;;;;11.92;100.00;101463.91;10218532;29;20447;-65
2024/02/14 12:54:37;;;;;;;1999.90;999.90;;;;;;;11.77;100.00;101463.78;10218243;29;20527;-65
2024/02/14 12:59:41;;;;;;;1999.90;999.90;;;;;;;11.74;100.00;101473.59;10218856;29;20053;-65
2024/02/14 13:04:44;;;;;;;1999.90;999.90;;;;;;;12.01;100.00;101452.94;10218225;29;20051;-65
2024/02/14 13:09:46;;;;;;;1999.90;999.90;;;;;;;11.92;100.00;101463.91;10218596;29;20051;-65
2024/02/14 13:14:48;;;;;;;1999.90;999.90;;;;;;;11.74;100.00;101449.97;10217827;29;20059;-66
2024/02/14 13:19:53;;;;;;;1999.90;999.90;;;;;;;11.94;100.00;101446.34;10201368;29;20047;-68
2024/02/14 13:25:00;;;;;;;1999.90;999.90;;;;;;;11.92;100.00;101449.03;10217242;29;20558;-65
2024/02/14 13:30:03;;;;;;;1999.90;999.90;;;;;;;12.16;100.00;101449.50;10217222;29;20527;-66
2024/02/14 13:35:06;;;;;;;1999.90;999.90;;;;;;;11.72;100.00;101444.81;10217130;29;20503;-66
2024/02/14 13:40:10;;;;;;;1999.90;999.90;;;;;;;11.83;100.00;101447.69;10217467;29;20058;-65
2024/02/14 13:45:12;;;;;;;1999.90;999.90;;;;;;;11.83;100.00;101439.81;10216660;29;20491;-65
2024/02/14 13:50:15;;;;;;;1999.90;999.90;;;;;;;11.87;100.00;101445.78;10216397;29;20479;-66
2024/02/14 13:55:17;;;;;;;1999.90;999.90;;;;;;;12.09;100.00;101450.78;10216905;29;20058;-65
2024/02/14 14:00:20;;;;;;;1999.90;999.90;;;;;;;11.70;100.00;101452.75;10216083;29;20048;-65
2024/02/14 14:05:22;;;;;;;1999.90;999.90;;;;;;;11.83;100.00;101445.06;10215894;29;20416;-65
2024/02/14 14:10:26;;;;;;;1999.90;999.90;;;;;;;11.86;100.00;101444.91;10215627;29;20526;-65
2024/02/14 14:15:32;;;;;;;1999.90;999.90;;;;;;;11.90;100.00;101454.34;10214409;29;20514;-65
2024/02/14 14:20:34;;;;;;;1999.90;999.90;;;;;;;12.09;100.00;101445.53;10216004;29;20052;-66
2024/02/14 14:25:37;;;;;;;1999.90;999.90;;;;;;;12.17;100.00;101438.09;10214879;29;20059;-66
2024/02/14 14:30:40;;;;;;;1999.90;999.90;;;;;;;12.03;100.00;101435.34;10213853;29;20154;-66
2024/02/14 14:35:42;;;;;;;1999.90;999.90;;;;;;;11.94;100.00;101431.44;10214352;29;20048;-66
2024/02/14 14:40:46;;;;;;;1999.90;999.90;;;;;;;11.84;100.00;101448.56;10222478;23;20055;-65
2024/02/14 14:45:49;;;;;;;1999.90;999.90;;;;;;;12.03;100.00;101438.81;10214147;29;20051;-65
2024/02/14 14:50:52;;;;;;;1999.90;999.90;;;;;;;12.13;100.00;101444.41;10213312;29;20085;-66
2024/02/14 14:55:56;;;;;;;1999.90;999.90;;;;;;;12.27;100.00;101449.78;10215065;29;20059;-65
2024/02/14 15:00:59;;;;;;;1999.90;999.90;;;;;;;12.02;100.00;101431.00;10213789;29;20070;-66
2024/02/14 15:06:02;;;;;;;1999.90;999.90;;;;;;;12.08;100.00;101443.81;10214174;29;20047;-65
2024/02/14 15:11:05;;;;;;;1999.90;999.90;;;;;;;11.89;100.00;101444.75;10216311;29;20107;-65
2024/02/14 15:16:09;;;;;;;1999.90;999.90;;;;;;;12.01;100.00;101437.22;10222346;29;20411;-66
2024/02/14 15:21:11;;;;;;;1999.90;999.90;;;;;;;12.24;100.00;101444.69;10222718;29;20062;-66
2024/02/14 15:26:17;;;;;;;1999.90;999.90;;;;;;;12.15;100.00;101446.97;10220852;29;20055;-65
2024/02/14 15:36:40;;;;;;;1999.90;999.90;;;;;;;12.27;100.00;101435.78;10222212;29;20063;-66
2024/02/14 15:41:42;;;;;;;1999.90;999.90;;;;;;;12.21;100.00;101446.66;10221262;29;20058;-66
2024/02/14 15:46:45;;;;;;;1999.90;999.90;;;;;;;12.20;100.00;101442.31;10221681;29;20059;-65
2024/02/14 15:51:50;;;;;;;1999.90;999.90;;;;;;;12.14;100.00;101453.13;10220502;29;20051;-66
2024/02/14 15:56:52;;;;;;;1999.90;999.90;;;;;;;12.31;100.00;101442.59;10220855;29;20487;-66
2024/02/14 16:01:55;;;;;;;1999.90;999.90;;;;;;;12.30;100.00;101440.88;10221224;29;20062;-66
2024/02/14 16:06:58;;;;;;;1999.90;999.90;;;;;;;12.07;100.00;101440.34;10220356;29;20472;-65
2024/02/14 16:12:00;;;;;;;1999.90;999.90;;;;;;;12.23;100.00;101431.66;10220747;29;20083;-65
2024/02/14 16:17:03;;;;;;;1999.90;999.90;;;;;;;12.29;100.00;101431.31;10220685;29;20056;-65
2024/02/14 16:22:05;;;;;;;1999.90;999.90;;;;;;;12.29;100.00;101441.84;10219859;29;20055;-66
2024/02/14 16:27:17;;;;;;;1999.90;999.90;;;;;;;12.24;100.00;101438.59;10219171;29;20044;-68
2024/02/14 16:32:20;;;;;;;1999.90;999.90;;;;;;;12.27;100.00;101436.66;10219588;29;20491;-68
2024/02/14 16:37:22;;;;;;;1999.90;999.90;;;;;;;12.45;100.00;101431.31;10218016;29;20435;-66
2024/02/14 16:42:25;;;;;;;1999.90;999.90;;;;;;;12.33;100.00;101434.63;10219176;29;20411;-66
2024/02/14 16:47:29;;;;;;;1999.90;999.90;;;;;;;12.32;100.00;101441.63;10217773;29;20131;-66
2024/02/14 16:52:32;;;;;;;1999.90;999.90;;;;;;;12.32;100.00;101440.81;10218213;29;20048;-65
2024/02/14 16:57:34;;;;;;;1999.90;999.90;;;;;;;12.36;100.00;101440.56;10219202;29;20052;-66
2024/02/14 17:02:37;;;;;;;1999.90;999.90;;;;;;;12.36;100.00;101450.22;10217249;29;20418;-66
2024/02/14 17:07:39;;;;;;;1999.90;999.90;;;;;;;12.30;100.00;101461.03;10218748;29;20051;-66
2024/02/14 17:12:42;;;;;;;1999.90;999.90;;;;;;;12.30;100.00;101466.31;10217989;29;20427;-66
2024/02/14 17:17:45;;;;;;;1999.90;999.90;;;;;;;12.29;100.00;101480.34;10218427;29;20048;-65
2024/02/14 17:22:47;;;;;;;1999.90;999.90;;;;;;;12.23;100.00;101489.41;10217622;29;20488;-66
2024/02/14 17:27:50;;;;;;;1999.90;999.90;;;;;;;12.45;100.00;101473.34;10217931;29;20058;-65
2024/02/14 17:32:52;;;;;;;1999.90;999.90;;;;;;;12.48;100.00;101482.84;10217226;29;20153;-66
2024/02/14 17:37:55;;;;;;;1999.90;999.90;;;;;;;12.53;100.00;101491.31;10215218;29;20055;-65
2024/02/14 17:42:57;;;;;;;1999.90;999.90;;;;;;;12.32;100.00;101493.31;10216869;29;20407;-66
2024/02/14 17:48:00;;;;;;;1999.90;999.90;;;;;;;12.53;100.00;101510.53;10217185;29;20055;-66
2024/02/14 17:53:02;;;;;;;1999.90;999.90;;;;;;;12.52;100.00;101514.09;10216412;29;20499;-66
2024/02/14 17:58:05;;;;;;;1999.90;999.90;;;;;;;12.54;100.00;101511.38;10216205;29;20534;-66
2024/02/14 18:03:07;;;;;;;1999.90;999.90;;;;;;;12.52;100.00;101514.09;10216689;29;20062;-65
2024/02/14 18:08:10;;;;;;;1999.90;999.90;;;;;;;12.54;100.00;101527.13;10215716;29;20145;-66
2024/02/14 18:13:13;;;;;;;1999.90;999.90;;;;;;;12.76;100.00;101529.44;10215701;29;20126;-65
2024/02/14 18:18:16;;;;;;;1999.90;999.90;;;;;;;12.60;100.00;101530.28;10214383;29;20118;-65
2024/02/14 18:23:18;;;;;;;1999.90;999.90;;;;;;;12.63;100.00;101545.88;10214341;29;20491;-65
2024/02/14 18:28:21;;;;;;;1999.90;999.90;;;;;;;12.63;100.00;101540.63;10215774;29;20058;-66
2024/02/14 18:33:23;;;;;;;1999.90;999.90;;;;;;;12.57;100.00;101548.00;10215071;29;20562;-66
2024/02/14 18:38:31;;;;;;;1999.90;999.90;;;;;;;12.61;100.00;101546.91;10214071;29;20055;-66
2024/02/14 18:43:33;;;;;;;1999.90;999.90;;;;;;;12.63;100.00;101542.41;10215448;29;20055;-65
2024/02/14 18:48:37;;;;;;;1999.90;999.90;;;;;;;12.58;100.00;101550.53;10213161;29;20408;-65
2024/02/14 18:53:41;;;;;;;1999.90;999.90;;;;;;;12.59;100.00;101535.63;10215129;29;20061;-65
2024/02/14 18:58:45;;;;;;;1999.90;999.90;;;;;;;12.47;100.00;101547.63;10215041;29;20055;-65
2024/02/14 19:03:47;;;;;;;1999.90;999.90;;;;;;;12.61;100.00;101539.88;10214864;29;20054;-66
2024/02/14 19:08:50;;;;;;;1999.90;999.90;;;;;;;12.56;100.00;101539.28;10214685;29;20047;-65
2024/02/14 19:13:53;;;;;;;1999.90;999.90;;;;;;;12.60;100.00;101551.31;10214709;29;20051;-66
2024/02/14 19:18:57;;;;;;;1999.90;999.90;;;;;;;12.61;100.00;101545.13;10213491;29;20131;-66
2024/02/14 19:23:59;;;;;;;1999.90;999.90;;;;;;;12.62;100.00;101546.84;10214525;29;20047;-65
2024/02/14 19:29:02;;;;;;;1999.90;999.90;;;;;;;12.76;100.00;101537.31;10213358;29;20079;-65
2024/02/14 19:34:07;;;;;;;1999.90;999.90;;;;;;;12.68;100.00;101539.56;10214301;29;20051;-65
2024/02/14 19:39:09;;;;;;;1999.90;999.90;;;;;;;12.47;100.00;101549.41;10213650;29;20132;-65
2024/02/14 19:44:12;;;;;;;1999.90;999.90;;;;;;;12.54;100.00;101543.78;10213469;29;20492;-65
2024/02/14 19:49:14;;;;;;;1999.90;999.90;;;;;;;12.57;100.00;101543.56;10213946;29;20054;-66
2024/02/14 19:54:17;;;;;;;1999.90;999.90;;;;;;;12.49;100.00;101543.16;10213982;29;20054;-65
2024/02/14 19:59:20;;;;;;;1999.90;999.90;;;;;;;12.76;100.00;101553.09;10216711;29;20139;-67
2024/02/14 20:04:23;;;;;;;1999.90;999.90;;;;;;;12.52;100.00;101556.13;10221197;29;20051;-65
2024/02/14 20:09:25;;;;;;;1999.90;999.90;;;;;;;12.70;100.00;101559.53;10219153;29;20392;-65
2024/02/14 20:14:28;;;;;;;1999.90;999.90;;;;;;;12.78;100.00;101559.97;10220902;29;20058;-66
2024/02/14 20:19:30;;;;;;;1999.90;999.90;;;;;;;12.82;100.00;101561.50;10220083;29;20414;-66
2024/02/14 20:24:35;;;;;;;1999.90;999.90;;;;;;;12.64;100.00;101570.38;10220519;29;20056;-66
2024/02/14 20:29:37;;;;;;;1999.90;999.90;;;;;;;12.48;100.00;101569.50;10218503;29;20518;-65
2024/02/14 20:34:40;;;;;;;1999.90;999.90;;;;;;;12.63;100.00;101572.16;10219490;29;20491;-65
2024/02/14 20:39:42;;;;;;;1999.90;999.90;;;;;;;12.72;100.00;101564.72;10219035;29;20087;-67
2024/02/14 20:44:45;;;;;;;1999.90;999.90;;;;;;;12.66;100.00;101575.53;10219722;29;20062;-66
2024/02/14 20:49:47;;;;;;;1999.90;999.90;;;;;;;12.46;100.00;101577.47;10218836;29;20118;-65
2024/02/14 20:54:52;;;;;;;1999.90;999.90;;;;;;;12.68;100.00;101571.91;10219350;29;20055;-65
2024/02/14 20:59:54;;;;;;;1999.90;999.90;;;;;;;12.60;100.00;101576.72;10219144;29;20047;-66
2024/02/14 21:04:57;;;;;;;1999.90;999.90;;;;;;;12.54;100.00;101591.06;10218953;29;20062;-65
2024/02/14 21:10:00;;;;;;;1999.90;999.90;;;;;;;12.69;100.00;101589.34;10218547;29;20051;-65
2024/02/14 21:15:03;;;;;;;1999.90;999.90;;;;;;;12.49;100.00;101594.84;10217917;29;20483;-65
2024/02/14 21:20:06;;;;;;;1999.90;999.90;;;;;;;12.42;100.00;101595.19;10218332;29;20080;-65
2024/02/14 21:25:10;;;;;;;1999.90;999.90;;;;;;;12.81;100.00;101599.22;10216986;29;20082;-66
2024/02/14 21:30:12;;;;;;;1999.90;999.90;;;;;;;12.55;100.00;101597.16;10217904;29;20051;-66
2024/02/14 21:35:15;;;;;;;1999.90;999.90;;;;;;;12.53;100.00;101599.00;10217767;29;20051;-65
2024/02/14 21:40:17;;;;;;;1999.90;999.90;;;;;;;12.66;100.00;101594.81;10216853;29;20091;-65
2024/02/14 21:45:20;;;;;;;1999.90;999.90;;;;;;;12.62;100.00;101603.75;10217398;29;20058;-65
2024/02/14 21:50:22;;;;;;;1999.90;999.90;;;;;;;12.54;100.00;101590.19;10217192;29;20044;-66